Logo AVAMET
Benvolgut visitant, si us plau, ingressa Recuperar contrasenya
AVAMET paisatges
Union Alcoyana

Inforatge Sueca Mareny de Barraquetes

Dades diàries. Acumulats / Últims 30 dies disponibles

Data Temperatura (°C) Humitat rel. (%) Pressió rel. (hPa) Vent (km/h) Precipitació
Mínima Mitjana Màxima Amplitud
tèrmica
Mínima Mitjana Màxima Mínima Mitjana Màxima Predom. Mitjana Ràfega
màxima
Total
(mm)
Índex-n
Mínima Mitjana Màxima Mínima Mitjana Màxima n
0 a 1
P0 max
mm 5'
Dades mensuals acumulades fins l'últim dia disponible
01/2022 2,7 6,7 13,9 10,6 11,7 15,7 23,4 20,7 32 77 98 1.010 1.027 1.037   9,2 74,0 5,8
Dades anuals acumulades fins l'últim dia disponible
2022 2,7 6,7 13,9 10,6 11,7 15,7 23,4 20,7 32 77 98 1.010 1.027 1.037   9,2 74,0 5,8
Últims 30 dies disponibles
23-01-2022 7,1     9,1     11,7 4,6 85 91 96 1.029 1.030 1.032 W 7,9 29,0 5,4 0,20
22-01-2022 6,7     9,7     13,0 6,3 73 84 94 1.030 1.031 1.034 W 5,0 22,5 0,0
21-01-2022 3,3     8,7     13,7 10,4 48 77 89 1.026 1.027 1.031 W 7,9 22,5 0,0
20-01-2022 3,9     8,1     14,7 10,8 56 80 89 1.028 1.030 1.032 W 8,0 24,1 0,0
19-01-2022 4,3     8,3     13,9 9,6 61 78 89 1.031 1.033 1.035 W 6,0 22,5 0,0
18-01-2022 2,7     7,6     13,4 10,7 51 77 90 1.031 1.033 1.034 W 7,1 22,5 0,0
17-01-2022 3,4     8,2     15,3 11,9 64 80 87 1.033 1.034 1.037 W 7,2 20,9 0,0
16-01-2022 4,5     8,9     14,7 10,2 44 72 91 1.029 1.031 1.034 W 8,5 24,1 0,0
15-01-2022 4,5     9,5     15,9 11,4 52 80 92 1.028 1.030 1.033 W 8,2 22,5 0,0
14-01-2022 5,7     8,6     12,0 6,3 73 85 91 1.033 1.035 1.037 W 7,6 20,9 0,0
13-01-2022 6,1     10,1     14,7 8,6 59 80 93 1.034 1.035 1.037 WSW 6,0 22,5 0,0
12-01-2022 7,3     11,1     15,3 8,0 60 81 92 1.027 1.030 1.034 W 7,2 20,9 0,0
11-01-2022 9,6     12,8     16,1 6,5 70 83 92 1.023 1.026 1.028 ESE 6,4 25,7 0,0
10-01-2022 13,9     16,4     22,2 8,3 48 70 90 1.015 1.017 1.023 WSW 19,3 66,0 0,0
09-01-2022 9,8     13,1     17,1 7,3 53 61 68 1.017 1.020 1.023 WSW 24,5 56,3 0,0
08-01-2022 7,4     11,0     16,7 9,3 44 62 74 1.022 1.027 1.029 WSW 14,2 38,6 0,0
07-01-2022 5,1     10,1     17,6 12,5 35 61 77 1.024 1.026 1.029 WSW 9,5 27,4 0,0
06-01-2022 5,7     9,5     14,9 9,2 32 64 83 1.016 1.020 1.024 W 6,8 20,9 0,0
05-01-2022 10,3     12,5     16,0 5,7 37 57 73 1.011 1.015 1.018 W 17,7 61,2 0,0
04-01-2022 11,2     16,2     23,4 12,2 48 69 90 1.010 1.015 1.022 W 12,4 74,0 0,0
03-01-2022 7,1     11,1     15,9 8,8 76 91 97 1.022 1.026 1.030 W 5,3 19,3 0,2
02-01-2022 8,3     10,8     15,7 7,4 72 93 98 1.028 1.029 1.031 WNW 3,2 12,9 0,2
01-01-2022 6,9     11,6     16,3 9,4 80 92 97 1.028 1.030 1.031 W 4,8 17,7 0,0
31-12-2021 8,4     12,6     18,3 9,9 68 84 96 1.026 1.028 1.031 SO 3,8 14,5 0,0
30-12-2021 10,9     14,8     22,6 11,7 45 77 94 1.024 1.025 1.027 W 9,2 27,4 0,0
29-12-2021 13,4     16,7     21,3 7,9 54 70 79 1.022 1.024 1.025 WSW 17,4 40,2 0,0
28-12-2021 15,9     17,8     20,6 4,7 57 65 74 1.018 1.021 1.023 W 30,6 70,8 0,0
27-12-2021 14,4     18,8     22,2 7,8 53 67 85 1.011 1.015 1.020 W 19,8 67,6 0,0
26-12-2021 13,3     15,8     19,8 6,5 58 77 87 1.009 1.012 1.015 WSW 13,0 59,5 0,0
25-12-2021 11,3     14,9     19,6 8,3 58 76 87 1.008 1.010 1.012 WSW 6,6 25,7 0,0
Últims 13 mesos disponibles
12/2021 7,2 10,5 15,9 13,8 13,9 17,9 22,6 15,4 58 75 91 1.010 1.022 1.031 W 13,4 70,8 7,6
11/2021 6,2 10,8 18,0 14,1 12,3 18,3 26,8 20,6 59 73 91 1.007 1.017 1.030 W 11,4 64,4 125,0
10/2021 12,4 15,3 19,8 19,5 20,9 24,0 30,5 18,1 63 82 88 1.011 1.021 1.028 W 7,8 64,4 144,4
09/2021 15,7 20,0 23,6 24,0 22,3 27,7 31,2 15,5 64 82 90 1.014 1.019 1.026 W 9,5 59,5 122,4
08/2021 18,3 22,3 25,8 26,1 26,9 29,5 36,6 18,3 65 80 86 1.008 1.016 1.021 ENE 8,5 45,1 24,4
07/2021 17,3 21,9 25,4 25,7 25,8 29,2 37,3 20,0 51 79 89 1.010 1.016 1.023 ESE 8,9 48,3 35,0
06/2021 17,4 19,9 23,2 23,1 22,1 26,2 31,1 13,7 61 79 89 1.012 1.018 1.024 ENE 8,0 43,5 18,2
05/2021 11,9 15,6 21,2 19,4 17,3 23,8 35,5 23,6 39 74 88 1.011 1.018 1.025 ESE 10,9 57,9 31,0
04/2021 6,1 11,2 14,7 14,6 13,9 18,2 26,6 20,5 66 81 92 1.008 1.018 1.027 NE 8,8 51,5 85,4
03/2021 5,1 9,1 13,5 13,0 12,9 16,7 25,1 20,0 61 80 91 1.015 1.024 1.032 NE 9,6 51,5 35,8
02/2021 6,6 10,7 15,1 13,9 13,8 17,4 21,8 15,2 58 77 90 1.004 1.021 1.036 W 12,4 75,6 1,4
01/2021 1,1 7,4 15,7 10,9 8,4 15,5 25,0 23,9 51 69 92 1.008 1.018 1.029 OSO 14,7 103,0 74,6
12/2020 3,3 8,9 13,9 12,4 13,1 16,9 21,8 18,5 52 68 89 999 1.016 1.029 W 14,0 86,9 5,6
Tots els anys disponibles
2021 1,1 14,6 25,8 18,2 8,4 22,1 37,3 36,2 39 78 92 1.004 1.019 1.036 W 10,3 103,0 705,2
Temperatura (°C)
Humitat relativa (%)
Velocitat del vent i ràfega màxima (km/h)
Direcció del vent (°)
Pressió (hPa)
Precipitació (mm)
Nota sobre les dades: s'avisa a l'usuari de la provisionalitat i no oficialitat d'aquestes dades
Logo AVAMET blanc
Web allotjada a Sollutia
Llicència de Creative CommonsLa web d'AVAMET i els seus continguts estan subjectes a una llicència de
Reconeixement - No Comercial - Compartir igual
Avís legal - Política de privacitat - Política de cookies
NOVES ESTACIONS: Zucaina - Masico Blanco (Soci) / Les Coves de Vinromà - Mas del Tonto (Soci) / Altea - Club Nàutic d'Altea (Soci) / Ayora - la Hunde (Pròpia AVAMET) / Carlet - Caseta del banc (Soci) / Albocàsser (Ajuntament Soci) / Tírig (Ajuntament Soci) / Monòver (Soci) / Gandia - Grau sud (Ajuntament Soci) / Caudiel (Ajuntament Soci) / Montcada - CIDE (Soci) / el Campello - el Vincle (Soci) / Pego - Corral de Rata (Soci) / Torreblanca - Torrenostra - PN el Prat (Pròpia AVAMET)  - - -